createdAt,value
2018-05-18T00:01:13.169Z,97217.34
2018-05-18T00:06:06.613Z,97214.45
2018-05-18T00:11:00.782Z,97216.06
2018-05-18T00:15:54.185Z,97213.20
2018-05-18T00:20:47.621Z,97215.56
2018-05-18T00:25:42.055Z,97212.34
2018-05-18T00:30:35.521Z,97215.66
2018-05-18T00:35:29.672Z,97203.08
2018-05-18T00:40:23.078Z,97207.69
2018-05-18T00:45:16.527Z,97212.42
2018-05-18T00:50:10.979Z,97193.11
2018-05-18T00:55:11.553Z,97191.69
2018-05-18T01:00:05.048Z,97191.48
2018-05-18T01:04:59.232Z,97188.31
2018-05-18T01:09:53.429Z,97182.53
2018-05-18T01:14:47.754Z,97171.47
2018-05-18T01:19:41.193Z,97178.63
2018-05-18T01:24:34.710Z,97177.75
2018-05-18T01:29:28.360Z,97174.98
2018-05-18T01:34:22.697Z,97174.10
2018-05-18T01:39:16.111Z,97172.77
2018-05-18T01:44:10.300Z,97165.92
2018-05-18T01:49:03.775Z,97168.13
2018-05-18T01:53:57.210Z,97176.61
2018-05-18T01:58:50.719Z,97185.83
2018-05-18T02:03:44.281Z,97189.53
2018-05-18T02:08:37.712Z,97190.19
2018-05-18T02:13:31.168Z,97191.23
2018-05-18T02:18:24.671Z,97193.39
2018-05-18T02:23:18.126Z,97192.98
2018-05-18T02:28:12.279Z,97199.88
2018-05-18T02:33:05.787Z,97196.84
2018-05-18T02:37:59.700Z,97194.23
2018-05-18T02:42:53.227Z,97192.98
2018-05-18T02:47:47.351Z,97190.36
2018-05-18T02:52:41.186Z,97181.70
2018-05-18T02:57:34.639Z,97183.78
2018-05-18T03:02:29.158Z,97176.45
2018-05-18T03:07:22.860Z,97182.96
2018-05-18T03:12:16.715Z,97183.38
2018-05-18T03:17:10.949Z,97189.16
2018-05-18T03:22:04.433Z,97180.67
2018-05-18T03:26:58.465Z,97189.83
2018-05-18T03:31:51.955Z,97199.85
2018-05-18T03:36:45.425Z,97193.48
2018-05-18T03:41:39.374Z,97186.30
2018-05-18T03:46:32.831Z,97188.40
2018-05-18T03:51:26.492Z,97176.09
2018-05-18T03:56:20.248Z,97177.27
2018-05-18T04:01:31.516Z,97186.57
2018-05-18T04:06:42.551Z,97181.72
2018-05-18T04:11:36.026Z,97185.73
2018-05-18T04:16:30.245Z,97190.38
2018-05-18T04:21:23.714Z,97194.53
2018-05-18T04:26:17.752Z,97189.80
2018-05-18T04:31:11.413Z,97191.78
2018-05-18T04:36:04.876Z,97184.82
2018-05-18T04:40:58.631Z,97191.98
2018-05-18T04:45:52.424Z,97184.09
2018-05-18T04:50:45.859Z,97188.90
2018-05-18T04:55:39.305Z,97193.77
2018-05-18T05:00:32.761Z,97196.33
2018-05-18T05:05:26.991Z,97200.88
2018-05-18T05:10:20.469Z,97197.70
2018-05-18T05:15:14.874Z,97200.23
2018-05-18T05:20:09.174Z,97201.79
2018-05-18T05:25:03.438Z,97209.03
2018-05-18T05:29:57.702Z,97211.03
2018-05-18T05:34:51.271Z,97217.06
2018-05-18T05:39:44.803Z,97219.58
2018-05-18T05:44:38.251Z,97220.36
2018-05-18T05:49:31.760Z,97231.20
2018-05-18T05:54:25.658Z,97234.30
2018-05-18T05:59:19.078Z,97234.37
2018-05-18T06:04:12.520Z,97228.86
2018-05-18T06:09:05.994Z,97231.73
2018-05-18T06:13:59.414Z,97229.20
2018-05-18T06:18:53.605Z,97232.47
2018-05-18T06:23:49.560Z,97238.80
2018-05-18T06:28:43.271Z,97236.06
2018-05-18T06:33:37.438Z,97236.87
2018-05-18T06:38:37.621Z,97245.53
2018-05-18T06:43:48.326Z,97240.72
2018-05-18T06:48:42.794Z,97251.84
2018-05-18T06:53:36.258Z,97249.70
2018-05-18T06:58:43.923Z,97242.87
2018-05-18T07:03:38.495Z,97237.55
2018-05-18T07:08:32.033Z,97234.05
2018-05-18T07:13:32.925Z,97231.61
2018-05-18T07:18:31.204Z,97235.83
2018-05-18T07:23:25.116Z,97240.14
2018-05-18T07:28:18.576Z,97232.00
2018-05-18T07:33:13.531Z,97228.98
2018-05-18T07:38:07.064Z,97229.29
2018-05-18T07:43:03.487Z,97233.77
2018-05-18T07:47:57.148Z,97237.21
2018-05-18T07:52:50.787Z,97229.55
2018-05-18T07:57:44.223Z,97233.39
2018-05-18T08:02:40.479Z,97227.05
2018-05-18T08:07:34.616Z,97223.53
2018-05-18T08:12:30.614Z,97229.03
2018-05-18T08:17:24.369Z,97217.77
2018-05-18T08:22:18.016Z,97214.03
2018-05-18T08:27:23.473Z,97215.97
2018-05-18T08:32:16.864Z,97206.92
2018-05-18T08:37:10.307Z,97208.20
2018-05-18T08:42:04.607Z,97213.03
2018-05-18T08:46:58.198Z,97210.21
2018-05-18T08:51:52.057Z,97219.87
2018-05-18T08:56:46.429Z,97212.34
2018-05-18T09:01:40.157Z,97211.80
2018-05-18T09:06:33.722Z,97209.84
2018-05-18T09:11:33.610Z,97207.52
2018-05-18T09:16:28.582Z,97206.33
2018-05-18T09:21:23.035Z,97208.42
2018-05-18T09:26:16.489Z,97202.66
2018-05-18T09:31:10.736Z,97197.06
2018-05-18T09:36:07.223Z,97190.64
2018-05-18T09:41:02.196Z,97192.86
2018-05-18T09:45:57.510Z,97194.44
2018-05-18T09:50:54.584Z,97197.61
2018-05-18T09:55:51.249Z,97190.30
2018-05-18T10:00:53.396Z,97189.91
2018-05-18T10:05:53.377Z,97183.98
2018-05-18T10:10:52.731Z,97189.53
2018-05-18T10:15:53.290Z,97191.59
2018-05-18T10:20:53.169Z,97184.43
2018-05-18T10:25:52.764Z,97180.87
2018-05-18T10:30:50.562Z,97178.66
2018-05-18T10:35:50.614Z,97169.36
2018-05-18T10:40:46.616Z,97171.64
2018-05-18T10:45:40.307Z,97164.50
2018-05-18T10:50:33.817Z,97159.77
2018-05-18T10:55:27.587Z,97157.23
2018-05-18T11:00:21.074Z,97153.16
2018-05-18T11:05:20.555Z,97150.33
2018-05-18T11:10:14.519Z,97145.16
2018-05-18T11:15:15.415Z,97134.81
2018-05-18T11:20:09.660Z,97134.86
2018-05-18T11:25:11.220Z,97138.52
2018-05-18T11:30:12.480Z,97128.30
2018-05-18T11:46:04.808Z,97113.30
2018-05-18T11:56:28.375Z,97095.61
2018-05-18T12:01:22.159Z,97096.84
2018-05-18T12:06:16.758Z,97092.53
2018-05-18T12:11:11.276Z,97090.47
2018-05-18T12:16:09.327Z,97077.87
2018-05-18T12:26:31.872Z,97072.66
2018-05-18T12:31:31.534Z,97058.66
2018-05-18T12:36:25.866Z,97059.56
2018-05-18T12:41:20.285Z,97049.84
2018-05-18T12:46:15.767Z,97036.89
2018-05-18T12:51:10.714Z,97031.91
2018-05-18T12:56:04.276Z,97019.23
2018-05-18T13:00:57.821Z,97016.97
2018-05-18T13:05:51.780Z,97009.92
2018-05-18T13:10:45.389Z,97002.20
2018-05-18T13:15:40.721Z,97006.47
2018-05-18T13:20:34.553Z,97013.22
2018-05-18T13:25:28.474Z,97011.41
2018-05-18T13:30:23.552Z,97006.50
2018-05-18T13:35:17.740Z,96989.59
2018-05-18T13:40:15.008Z,96972.89
2018-05-18T13:45:12.009Z,96972.05
2018-05-18T13:50:07.406Z,96979.50
2018-05-18T13:55:04.768Z,96970.33
2018-05-18T14:16:28.959Z,96950.67
2018-05-18T14:26:57.470Z,96944.98
2018-05-18T14:37:22.726Z,96949.35
2018-05-18T14:42:19.051Z,96946.28
2018-05-18T14:47:14.385Z,96936.69
2018-05-18T14:52:13.172Z,96933.48
2018-05-18T15:08:04.552Z,96929.03
2018-05-18T15:12:59.226Z,96922.09
2018-05-18T15:17:53.683Z,96920.98
2018-05-18T15:22:47.452Z,96923.04
2018-05-18T15:27:41.050Z,96927.67
2018-05-18T15:32:34.502Z,96926.09
2018-05-18T15:37:30.002Z,96923.69
2018-05-18T15:42:23.463Z,96927.42
2018-05-18T15:47:16.913Z,96930.02
2018-05-18T15:52:10.508Z,96927.50
2018-05-18T15:57:04.109Z,96922.83
2018-05-18T16:01:58.278Z,96923.97
2018-05-18T16:06:51.739Z,96932.02
2018-05-18T16:11:45.406Z,96936.09
2018-05-18T16:16:39.350Z,96942.28
2018-05-18T16:21:32.779Z,96930.19
2018-05-18T16:26:26.171Z,96933.55
2018-05-18T16:31:19.621Z,96928.24
2018-05-18T16:36:13.051Z,96932.94
2018-05-18T16:41:06.514Z,96930.05
2018-05-18T16:45:59.993Z,96935.89
2018-05-18T16:50:53.461Z,96933.71
2018-05-18T16:55:47.326Z,96930.23
2018-05-18T17:00:40.759Z,96932.68
2018-05-18T17:05:34.224Z,96942.11
2018-05-18T17:10:27.610Z,96955.89
2018-05-18T17:15:21.837Z,96954.27
2018-05-18T17:20:15.261Z,96953.63
2018-05-18T17:25:09.741Z,96958.74
2018-05-18T17:30:03.364Z,96983.63
2018-05-18T17:34:56.793Z,96998.52
2018-05-18T17:39:50.237Z,97008.67
2018-05-18T17:44:43.704Z,97013.76
2018-05-18T17:49:37.307Z,97018.72
2018-05-18T17:54:30.838Z,97016.88
2018-05-18T17:59:24.998Z,97015.77
2018-05-18T18:04:18.467Z,97008.78
2018-05-18T18:09:12.745Z,97005.73
2018-05-18T18:14:06.356Z,97000.56
2018-05-18T18:18:59.757Z,97003.47
2018-05-18T18:23:54.075Z,96998.56
2018-05-18T18:28:47.604Z,96994.28
2018-05-18T18:33:40.964Z,96988.70
2018-05-18T18:38:35.464Z,97005.82
2018-05-18T18:43:29.694Z,97013.34
2018-05-18T18:48:23.185Z,97031.99
2018-05-18T18:53:16.621Z,97045.16
2018-05-18T18:58:10.993Z,97038.50
2018-05-18T19:03:04.783Z,97045.57
2018-05-18T19:07:58.321Z,97048.47
2018-05-18T19:12:52.429Z,97031.52
2018-05-18T19:17:46.623Z,97038.59
2018-05-18T19:22:40.858Z,97050.83
2018-05-18T19:27:34.609Z,97049.70
2018-05-18T19:32:28.067Z,97057.20
2018-05-18T19:37:22.300Z,97062.66
2018-05-18T19:42:15.754Z,97059.77
2018-05-18T19:47:09.169Z,97064.55
2018-05-18T19:52:02.654Z,97061.89
2018-05-18T19:56:56.094Z,97073.02
2018-05-18T20:01:49.542Z,97083.31
2018-05-18T20:06:42.995Z,97089.73
2018-05-18T20:11:37.169Z,97097.27
2018-05-18T20:16:31.652Z,97093.47
2018-05-18T20:21:25.166Z,97097.16
2018-05-18T20:26:18.726Z,97099.81
2018-05-18T20:31:13.012Z,97097.91
2018-05-18T20:36:07.257Z,97102.38
2018-05-18T20:41:00.925Z,97094.27
2018-05-18T20:45:54.346Z,97097.79
2018-05-18T20:50:47.812Z,97095.91
2018-05-18T20:55:42.038Z,97098.73
2018-05-18T21:00:35.482Z,97092.63
2018-05-18T21:05:29.778Z,97092.05
2018-05-18T21:10:23.985Z,97096.45
2018-05-18T21:15:17.475Z,97091.88
2018-05-18T21:20:10.923Z,97097.64
2018-05-18T21:25:04.462Z,97102.81
2018-05-18T21:29:57.920Z,97099.25
2018-05-18T21:34:51.347Z,97096.31
2018-05-18T21:39:45.556Z,97091.92
2018-05-18T21:44:38.978Z,97100.38
2018-05-18T21:49:33.417Z,97092.33
2018-05-18T21:54:26.867Z,97089.55
2018-05-18T21:59:20.406Z,97103.37
2018-05-18T22:04:13.891Z,97105.73
2018-05-18T22:09:07.623Z,97101.33
2018-05-18T22:14:01.209Z,97104.73
2018-05-18T22:18:54.734Z,97116.21
2018-05-18T22:23:49.137Z,97109.71
2018-05-18T22:28:42.590Z,97112.39
2018-05-18T22:33:36.051Z,97107.05
2018-05-18T22:38:30.260Z,97107.70
2018-05-18T22:43:23.691Z,97108.02
2018-05-18T22:48:17.318Z,97106.16
2018-05-18T22:53:11.571Z,97110.22
2018-05-18T22:58:05.890Z,97112.45
2018-05-18T23:03:00.240Z,97109.61
2018-05-18T23:07:53.690Z,97117.63
2018-05-18T23:12:47.120Z,97109.77
2018-05-18T23:17:40.507Z,97109.25
2018-05-18T23:22:35.007Z,97102.76
2018-05-18T23:27:29.347Z,97102.47
2018-05-18T23:32:22.878Z,97090.41
2018-05-18T23:37:16.330Z,97096.03
2018-05-18T23:42:10.526Z,97091.00
2018-05-18T23:47:04.840Z,97091.43
2018-05-18T23:51:58.364Z,97091.93
2018-05-18T23:56:51.829Z,97080.88
